Аэропорт: Львов имени Даниила Галицкого. Львов

ICAO: UKLL

METAR:
2018/05/20 23:00
UKLL 202300Z 07003MPS CAVOK 11/05 Q1023 R13/CLRD// NOSIG
METAR:
2018/05/20 18:15
TAF TAF UKLL 201702Z 2018/2118 VRB02MPS 9999 SCT025 
      TEMPO 2018/2106 06004MPS 2100 BR SCT007 
      BECMG 2106/2107 09005MPS